sensor_id;sensor_type;location;lat;lon;timestamp;temperature;humidity
12470;DHT22;36499;46.484;13.832;2023-03-01T00:01:10;-0.60;99.90
12470;DHT22;36499;46.484;13.832;2023-03-01T00:03:39;-0.60;99.90
12470;DHT22;36499;46.484;13.832;2023-03-01T00:06:06;-0.70;99.90
12470;DHT22;36499;46.484;13.832;2023-03-01T00:08:34;-0.60;99.90
12470;DHT22;36499;46.484;13.832;2023-03-01T00:11:06;-0.70;99.90
12470;DHT22;36499;46.484;13.832;2023-03-01T00:13:34;-0.60;99.90
12470;DHT22;36499;46.484;13.832;2023-03-01T00:16:03;-0.60;99.90
12470;DHT22;36499;46.484;13.832;2023-03-01T00:18:31;-0.60;99.90
12470;DHT22;36499;46.484;13.832;2023-03-01T00:20:59;-0.60;99.90
12470;DHT22;36499;46.484;13.832;2023-03-01T00:23:26;-0.60;99.90
12470;DHT22;36499;46.484;13.832;2023-03-01T00:25:54;-0.60;99.90
12470;DHT22;36499;46.484;13.832;2023-03-01T00:28:22;-0.60;99.90
12470;DHT22;36499;46.484;13.832;2023-03-01T00:30:50;-0.60;99.90
12470;DHT22;36499;46.484;13.832;2023-03-01T00:33:17;-0.60;99.90
12470;DHT22;36499;46.484;13.832;2023-03-01T00:35:44;-0.60;99.90
12470;DHT22;36499;46.484;13.832;2023-03-01T00:38:11;-0.60;99.90
12470;DHT22;36499;46.484;13.832;2023-03-01T00:40:38;-0.60;99.90
12470;DHT22;36499;46.484;13.832;2023-03-01T00:43:05;-0.70;99.90
12470;DHT22;36499;46.484;13.832;2023-03-01T00:45:34;-0.70;99.90
12470;DHT22;36499;46.484;13.832;2023-03-01T00:48:01;-0.70;99.90
12470;DHT22;36499;46.484;13.832;2023-03-01T00:50:28;-0.70;99.90
12470;DHT22;36499;46.484;13.832;2023-03-01T00:52:55;-0.70;99.90
12470;DHT22;36499;46.484;13.832;2023-03-01T00:55:23;-0.70;99.90
12470;DHT22;36499;46.484;13.832;2023-03-01T00:57:51;-0.70;99.90
12470;DHT22;36499;46.484;13.832;2023-03-01T01:00:19;-0.70;99.90
12470;DHT22;36499;46.484;13.832;2023-03-01T01:02:48;-0.70;99.90
12470;DHT22;36499;46.484;13.832;2023-03-01T01:05:15;-0.60;99.90
12470;DHT22;36499;46.484;13.832;2023-03-01T01:07:46;-0.70;99.90
12470;DHT22;36499;46.484;13.832;2023-03-01T01:10:14;-0.60;99.90
12470;DHT22;36499;46.484;13.832;2023-03-01T01:12:42;-0.60;99.90
12470;DHT22;36499;46.484;13.832;2023-03-01T01:15:11;-0.60;99.90
12470;DHT22;36499;46.484;13.832;2023-03-01T01:17:40;-0.70;99.90
12470;DHT22;36499;46.484;13.832;2023-03-01T01:20:09;-0.70;99.90
12470;DHT22;36499;46.484;13.832;2023-03-01T01:22:37;-0.70;99.90
12470;DHT22;36499;46.484;13.832;2023-03-01T01:25:05;-0.70;99.90
12470;DHT22;36499;46.484;13.832;2023-03-01T01:27:32;-0.70;99.90
12470;DHT22;36499;46.484;13.832;2023-03-01T01:29:59;-0.70;99.90
12470;DHT22;36499;46.484;13.832;2023-03-01T01:32:26;-0.70;99.90
12470;DHT22;36499;46.484;13.832;2023-03-01T01:34:53;-0.70;99.90
12470;DHT22;36499;46.484;13.832;2023-03-01T01:37:22;-0.70;99.90
12470;DHT22;36499;46.484;13.832;2023-03-01T01:39:56;-0.70;99.90
12470;DHT22;36499;46.484;13.832;2023-03-01T01:42:24;-0.60;99.90
12470;DHT22;36499;46.484;13.832;2023-03-01T01:47:56;-0.70;99.90
12470;DHT22;36499;46.484;13.832;2023-03-01T01:50:26;-0.80;99.90
12470;DHT22;36499;46.484;13.832;2023-03-01T01:53:08;-0.80;99.90
12470;DHT22;36499;46.484;13.832;2023-03-01T01:55:43;-0.70;99.90
12470;DHT22;36499;46.484;13.832;2023-03-01T01:58:17;-0.70;99.90
12470;DHT22;36499;46.484;13.832;2023-03-01T02:00:47;-0.70;99.90
12470;DHT22;36499;46.484;13.832;2023-03-01T02:03:17;-0.70;99.90
12470;DHT22;36499;46.484;13.832;2023-03-01T02:05:50;-0.80;99.90
12470;DHT22;36499;46.484;13.832;2023-03-01T02:08:28;-0.70;99.90
12470;DHT22;36499;46.484;13.832;2023-03-01T02:10:58;-0.70;99.90
12470;DHT22;36499;46.484;13.832;2023-03-01T02:13:30;-0.70;99.90
12470;DHT22;36499;46.484;13.832;2023-03-01T02:15:58;-0.70;99.90
12470;DHT22;36499;46.484;13.832;2023-03-01T02:18:26;-0.70;99.90
12470;DHT22;36499;46.484;13.832;2023-03-01T02:21:05;-0.70;99.90
12470;DHT22;36499;46.484;13.832;2023-03-01T02:23:39;-0.70;99.90
12470;DHT22;36499;46.484;13.832;2023-03-01T02:26:15;-0.70;99.90
12470;DHT22;36499;46.484;13.832;2023-03-01T02:28:49;-0.70;99.90
12470;DHT22;36499;46.484;13.832;2023-03-01T02:31:19;-0.70;99.90
12470;DHT22;36499;46.484;13.832;2023-03-01T02:34:06;-0.80;99.90
12470;DHT22;36499;46.484;13.832;2023-03-01T02:36:37;-0.80;99.90
12470;DHT22;36499;46.484;13.832;2023-03-01T02:39:08;-0.80;99.90
12470;DHT22;36499;46.484;13.832;2023-03-01T02:41:47;-0.80;99.90
12470;DHT22;36499;46.484;13.832;2023-03-01T02:44:18;-0.70;99.90
12470;DHT22;36499;46.484;13.832;2023-03-01T02:46:48;-0.80;99.90
12470;DHT22;36499;46.484;13.832;2023-03-01T02:49:24;-0.80;99.90
12470;DHT22;36499;46.484;13.832;2023-03-01T02:52:15;-0.80;99.90
12470;DHT22;36499;46.484;13.832;2023-03-01T02:54:54;-0.80;99.90
12470;DHT22;36499;46.484;13.832;2023-03-01T02:57:26;-0.80;99.90
12470;DHT22;36499;46.484;13.832;2023-03-01T02:59:58;-0.90;99.90
12470;DHT22;36499;46.484;13.832;2023-03-01T03:02:32;-0.90;99.90
12470;DHT22;36499;46.484;13.832;2023-03-01T03:05:06;-0.90;99.90
12470;DHT22;36499;46.484;13.832;2023-03-01T03:07:36;-0.80;99.90
12470;DHT22;36499;46.484;13.832;2023-03-01T03:10:08;-0.90;99.90
12470;DHT22;36499;46.484;13.832;2023-03-01T03:12:37;-0.80;99.90
12470;DHT22;36499;46.484;13.832;2023-03-01T03:15:09;-0.90;99.90
12470;DHT22;36499;46.484;13.832;2023-03-01T03:17:38;-0.80;99.90
12470;DHT22;36499;46.484;13.832;2023-03-01T03:20:11;-0.80;99.90
12470;DHT22;36499;46.484;13.832;2023-03-01T03:22:44;-0.80;99.90
12470;DHT22;36499;46.484;13.832;2023-03-01T03:25:12;-0.80;99.90
12470;DHT22;36499;46.484;13.832;2023-03-01T03:27:41;-0.80;99.90
12470;DHT22;36499;46.484;13.832;2023-03-01T03:30:13;-0.80;99.90
12470;DHT22;36499;46.484;13.832;2023-03-01T03:32:43;-0.70;99.90
12470;DHT22;36499;46.484;13.832;2023-03-01T03:35:18;-0.80;99.90
12470;DHT22;36499;46.484;13.832;2023-03-01T03:37:46;-0.90;99.90
12470;DHT22;36499;46.484;13.832;2023-03-01T03:40:30;-0.80;99.90
12470;DHT22;36499;46.484;13.832;2023-03-01T03:42:58;-0.80;99.90
12470;DHT22;36499;46.484;13.832;2023-03-01T03:45:27;-0.80;99.90
12470;DHT22;36499;46.484;13.832;2023-03-01T03:47:54;-0.70;99.90
12470;DHT22;36499;46.484;13.832;2023-03-01T03:50:21;-0.80;99.90
12470;DHT22;36499;46.484;13.832;2023-03-01T03:52:48;-0.80;99.90
12470;DHT22;36499;46.484;13.832;2023-03-01T03:55:15;-0.80;99.90
12470;DHT22;36499;46.484;13.832;2023-03-01T03:57:46;-0.80;99.90
12470;DHT22;36499;46.484;13.832;2023-03-01T04:00:18;-0.90;99.90
12470;DHT22;36499;46.484;13.832;2023-03-01T04:02:48;-0.90;99.90
12470;DHT22;36499;46.484;13.832;2023-03-01T04:05:17;-0.90;99.90
12470;DHT22;36499;46.484;13.832;2023-03-01T04:07:45;-1.00;99.90
12470;DHT22;36499;46.484;13.832;2023-03-01T04:10:15;-1.00;99.90
12470;DHT22;36499;46.484;13.832;2023-03-01T04:12:44;-1.00;99.90
12470;DHT22;36499;46.484;13.832;2023-03-01T04:15:11;-1.00;99.90
12470;DHT22;36499;46.484;13.832;2023-03-01T04:17:44;-1.00;99.90
12470;DHT22;36499;46.484;13.832;2023-03-01T04:20:15;-1.00;99.90
12470;DHT22;36499;46.484;13.832;2023-03-01T04:22:50;-0.90;99.90
12470;DHT22;36499;46.484;13.832;2023-03-01T04:25:18;-0.90;99.90
12470;DHT22;36499;46.484;13.832;2023-03-01T04:27:46;-0.80;99.90
12470;DHT22;36499;46.484;13.832;2023-03-01T04:30:14;-0.90;99.90
12470;DHT22;36499;46.484;13.832;2023-03-01T04:32:41;-0.90;99.90
12470;DHT22;36499;46.484;13.832;2023-03-01T04:35:09;-1.00;99.90
12470;DHT22;36499;46.484;13.832;2023-03-01T04:37:37;-1.00;99.90
12470;DHT22;36499;46.484;13.832;2023-03-01T04:40:05;-0.90;99.90
12470;DHT22;36499;46.484;13.832;2023-03-01T04:42:39;-0.90;99.90
12470;DHT22;36499;46.484;13.832;2023-03-01T04:45:06;-0.90;99.90
12470;DHT22;36499;46.484;13.832;2023-03-01T04:47:39;-0.90;99.90
12470;DHT22;36499;46.484;13.832;2023-03-01T04:50:09;-0.90;99.90
12470;DHT22;36499;46.484;13.832;2023-03-01T04:52:39;-0.90;99.90
12470;DHT22;36499;46.484;13.832;2023-03-01T04:55:07;-0.90;99.90
12470;DHT22;36499;46.484;13.832;2023-03-01T04:57:35;-0.90;99.90
12470;DHT22;36499;46.484;13.832;2023-03-01T05:00:03;-1.00;99.90
12470;DHT22;36499;46.484;13.832;2023-03-01T05:02:46;-1.00;99.90
12470;DHT22;36499;46.484;13.832;2023-03-01T05:05:20;-1.00;99.90
12470;DHT22;36499;46.484;13.832;2023-03-01T05:07:56;-1.00;99.90
12470;DHT22;36499;46.484;13.832;2023-03-01T05:10:25;-1.00;99.90
12470;DHT22;36499;46.484;13.832;2023-03-01T05:12:54;-1.00;99.90
12470;DHT22;36499;46.484;13.832;2023-03-01T05:15:22;-1.00;99.90
12470;DHT22;36499;46.484;13.832;2023-03-01T05:17:51;-1.00;99.90
12470;DHT22;36499;46.484;13.832;2023-03-01T05:20:18;-1.00;99.90
12470;DHT22;36499;46.484;13.832;2023-03-01T05:22:48;-1.00;99.90
12470;DHT22;36499;46.484;13.832;2023-03-01T05:25:16;-1.00;99.90
12470;DHT22;36499;46.484;13.832;2023-03-01T05:27:44;-0.90;99.90
12470;DHT22;36499;46.484;13.832;2023-03-01T05:30:12;-1.00;99.90
12470;DHT22;36499;46.484;13.832;2023-03-01T05:32:41;-1.00;99.90
12470;DHT22;36499;46.484;13.832;2023-03-01T05:35:10;-1.00;99.90
12470;DHT22;36499;46.484;13.832;2023-03-01T05:37:40;-1.00;99.90
12470;DHT22;36499;46.484;13.832;2023-03-01T05:40:10;-1.00;99.90
12470;DHT22;36499;46.484;13.832;2023-03-01T05:42:43;-1.00;99.90
12470;DHT22;36499;46.484;13.832;2023-03-01T05:45:11;-1.00;99.90
12470;DHT22;36499;46.484;13.832;2023-03-01T05:47:39;-1.10;99.90
12470;DHT22;36499;46.484;13.832;2023-03-01T05:50:13;-1.10;99.90
12470;DHT22;36499;46.484;13.832;2023-03-01T05:52:45;-1.10;99.90
12470;DHT22;36499;46.484;13.832;2023-03-01T05:55:16;-1.10;99.90
12470;DHT22;36499;46.484;13.832;2023-03-01T05:57:46;-1.20;99.90
12470;DHT22;36499;46.484;13.832;2023-03-01T06:00:15;-1.10;99.90
12470;DHT22;36499;46.484;13.832;2023-03-01T06:02:45;-1.10;99.90
12470;DHT22;36499;46.484;13.832;2023-03-01T06:05:13;-1.10;99.90
12470;DHT22;36499;46.484;13.832;2023-03-01T06:07:41;-1.20;99.90
12470;DHT22;36499;46.484;13.832;2023-03-01T06:10:09;-1.20;99.90
12470;DHT22;36499;46.484;13.832;2023-03-01T06:12:39;-1.20;99.90
12470;DHT22;36499;46.484;13.832;2023-03-01T06:15:10;-1.20;99.90
12470;DHT22;36499;46.484;13.832;2023-03-01T06:17:39;-1.20;99.90
12470;DHT22;36499;46.484;13.832;2023-03-01T06:20:11;-1.20;99.90
12470;DHT22;36499;46.484;13.832;2023-03-01T06:22:40;-1.20;99.90
12470;DHT22;36499;46.484;13.832;2023-03-01T06:25:08;-1.20;99.90
12470;DHT22;36499;46.484;13.832;2023-03-01T06:27:36;-1.20;99.90
12470;DHT22;36499;46.484;13.832;2023-03-01T06:30:04;-1.20;99.90
12470;DHT22;36499;46.484;13.832;2023-03-01T06:32:33;-1.20;99.90
12470;DHT22;36499;46.484;13.832;2023-03-01T06:35:00;-1.10;99.90
12470;DHT22;36499;46.484;13.832;2023-03-01T06:37:28;-1.10;99.90
12470;DHT22;36499;46.484;13.832;2023-03-01T06:39:55;-1.10;99.90
12470;DHT22;36499;46.484;13.832;2023-03-01T06:42:22;-1.10;99.90
12470;DHT22;36499;46.484;13.832;2023-03-01T06:44:49;-1.10;99.90
12470;DHT22;36499;46.484;13.832;2023-03-01T06:47:16;-1.10;99.90
12470;DHT22;36499;46.484;13.832;2023-03-01T06:49:44;-1.10;99.90
12470;DHT22;36499;46.484;13.832;2023-03-01T06:52:11;-1.10;99.90
12470;DHT22;36499;46.484;13.832;2023-03-01T06:54:38;-1.10;99.90
12470;DHT22;36499;46.484;13.832;2023-03-01T06:57:05;-1.10;99.90
12470;DHT22;36499;46.484;13.832;2023-03-01T06:59:32;-1.10;99.90
12470;DHT22;36499;46.484;13.832;2023-03-01T07:01:59;-1.00;99.90
12470;DHT22;36499;46.484;13.832;2023-03-01T07:04:26;-1.00;99.90
12470;DHT22;36499;46.484;13.832;2023-03-01T07:06:57;-1.00;99.90
12470;DHT22;36499;46.484;13.832;2023-03-01T07:09:25;-1.00;99.90
12470;DHT22;36499;46.484;13.832;2023-03-01T07:11:52;-0.90;99.90
12470;DHT22;36499;46.484;13.832;2023-03-01T07:14:19;-0.90;99.90
12470;DHT22;36499;46.484;13.832;2023-03-01T07:16:46;-0.90;99.90
12470;DHT22;36499;46.484;13.832;2023-03-01T07:19:13;-0.90;99.90
12470;DHT22;36499;46.484;13.832;2023-03-01T07:21:40;-0.80;99.90
12470;DHT22;36499;46.484;13.832;2023-03-01T07:24:09;-0.70;99.90
12470;DHT22;36499;46.484;13.832;2023-03-01T07:26:37;-0.70;99.90
12470;DHT22;36499;46.484;13.832;2023-03-01T07:29:06;-0.70;99.90
12470;DHT22;36499;46.484;13.832;2023-03-01T07:31:34;-0.60;99.90
12470;DHT22;36499;46.484;13.832;2023-03-01T07:34:02;-0.60;99.90
12470;DHT22;36499;46.484;13.832;2023-03-01T07:36:29;-0.60;99.90
12470;DHT22;36499;46.484;13.832;2023-03-01T07:38:56;-0.60;99.90
12470;DHT22;36499;46.484;13.832;2023-03-01T07:41:25;-0.60;99.90
12470;DHT22;36499;46.484;13.832;2023-03-01T07:43:52;-0.60;99.90
12470;DHT22;36499;46.484;13.832;2023-03-01T07:46:19;-0.50;99.90
12470;DHT22;36499;46.484;13.832;2023-03-01T07:48:46;-0.50;99.90
12470;DHT22;36499;46.484;13.832;2023-03-01T07:51:13;-0.50;99.90
12470;DHT22;36499;46.484;13.832;2023-03-01T07:53:41;-0.50;99.90
12470;DHT22;36499;46.484;13.832;2023-03-01T07:56:10;-0.50;99.90
12470;DHT22;36499;46.484;13.832;2023-03-01T07:58:41;-0.50;99.90
12470;DHT22;36499;46.484;13.832;2023-03-01T08:01:11;-0.40;99.90
12470;DHT22;36499;46.484;13.832;2023-03-01T08:03:39;-0.40;99.90
12470;DHT22;36499;46.484;13.832;2023-03-01T08:06:08;-0.40;99.90
12470;DHT22;36499;46.484;13.832;2023-03-01T08:08:37;-0.40;99.90
12470;DHT22;36499;46.484;13.832;2023-03-01T08:11:05;-0.40;99.90
12470;DHT22;36499;46.484;13.832;2023-03-01T08:13:34;-0.50;99.90
12470;DHT22;36499;46.484;13.832;2023-03-01T08:16:04;-0.50;99.90
12470;DHT22;36499;46.484;13.832;2023-03-01T08:18:33;-0.40;99.90
12470;DHT22;36499;46.484;13.832;2023-03-01T08:21:03;-0.40;99.90
12470;DHT22;36499;46.484;13.832;2023-03-01T08:23:31;-0.40;99.90
12470;DHT22;36499;46.484;13.832;2023-03-01T08:26:11;-0.40;99.90
12470;DHT22;36499;46.484;13.832;2023-03-01T08:28:40;-0.40;99.90
12470;DHT22;36499;46.484;13.832;2023-03-01T08:31:17;-0.30;99.90
12470;DHT22;36499;46.484;13.832;2023-03-01T08:33:48;-0.30;99.90
12470;DHT22;36499;46.484;13.832;2023-03-01T08:36:20;-0.30;99.90
12470;DHT22;36499;46.484;13.832;2023-03-01T08:38:48;-0.20;99.90
12470;DHT22;36499;46.484;13.832;2023-03-01T08:41:15;-0.30;99.90
12470;DHT22;36499;46.484;13.832;2023-03-01T08:43:42;-0.30;99.90
12470;DHT22;36499;46.484;13.832;2023-03-01T08:46:10;-0.30;99.90
12470;DHT22;36499;46.484;13.832;2023-03-01T08:48:39;-0.20;99.90
12470;DHT22;36499;46.484;13.832;2023-03-01T08:51:09;-0.20;99.90
12470;DHT22;36499;46.484;13.832;2023-03-01T08:53:38;-0.10;99.90
12470;DHT22;36499;46.484;13.832;2023-03-01T08:56:06;-0.10;99.90
12470;DHT22;36499;46.484;13.832;2023-03-01T08:58:34;-0.10;99.90
12470;DHT22;36499;46.484;13.832;2023-03-01T09:01:07;-0.10;99.90
12470;DHT22;36499;46.484;13.832;2023-03-01T09:03:35;0.00;99.90
12470;DHT22;36499;46.484;13.832;2023-03-01T09:06:05;0.00;99.90
12470;DHT22;36499;46.484;13.832;2023-03-01T09:08:35;0.10;99.90
12470;DHT22;36499;46.484;13.832;2023-03-01T09:11:03;0.10;99.90
12470;DHT22;36499;46.484;13.832;2023-03-01T09:13:31;0.00;99.90
12470;DHT22;36499;46.484;13.832;2023-03-01T09:16:00;0.00;99.90
12470;DHT22;36499;46.484;13.832;2023-03-01T09:18:28;0.00;99.90
12470;DHT22;36499;46.484;13.832;2023-03-01T09:21:01;0.00;99.90
12470;DHT22;36499;46.484;13.832;2023-03-01T09:23:34;0.00;99.90
12470;DHT22;36499;46.484;13.832;2023-03-01T09:26:04;0.00;99.90
12470;DHT22;36499;46.484;13.832;2023-03-01T09:28:32;0.00;99.90
12470;DHT22;36499;46.484;13.832;2023-03-01T09:30:59;0.10;99.90
12470;DHT22;36499;46.484;13.832;2023-03-01T09:33:27;0.10;99.90
12470;DHT22;36499;46.484;13.832;2023-03-01T09:35:57;0.20;99.90
12470;DHT22;36499;46.484;13.832;2023-03-01T09:38:25;0.20;99.90
12470;DHT22;36499;46.484;13.832;2023-03-01T09:40:54;0.20;99.90
12470;DHT22;36499;46.484;13.832;2023-03-01T09:43:26;0.10;99.90
12470;DHT22;36499;46.484;13.832;2023-03-01T09:46:00;0.20;99.90
12470;DHT22;36499;46.484;13.832;2023-03-01T09:48:37;0.10;99.90
12470;DHT22;36499;46.484;13.832;2023-03-01T09:51:14;0.20;99.90
12470;DHT22;36499;46.484;13.832;2023-03-01T09:53:45;0.20;99.90
12470;DHT22;36499;46.484;13.832;2023-03-01T09:56:19;0.30;99.90
12470;DHT22;36499;46.484;13.832;2023-03-01T09:58:53;0.30;99.90
12470;DHT22;36499;46.484;13.832;2023-03-01T10:01:34;0.30;99.90
12470;DHT22;36499;46.484;13.832;2023-03-01T10:04:28;0.40;99.90
12470;DHT22;36499;46.484;13.832;2023-03-01T10:07:19;0.40;99.90
12470;DHT22;36499;46.484;13.832;2023-03-01T10:09:53;0.40;99.90
12470;DHT22;36499;46.484;13.832;2023-03-01T10:12:26;0.50;99.90
12470;DHT22;36499;46.484;13.832;2023-03-01T10:15:02;0.50;99.90
12470;DHT22;36499;46.484;13.832;2023-03-01T10:17:36;0.60;99.90
12470;DHT22;36499;46.484;13.832;2023-03-01T10:20:21;0.70;99.90
12470;DHT22;36499;46.484;13.832;2023-03-01T10:22:50;0.70;99.90
12470;DHT22;36499;46.484;13.832;2023-03-01T10:25:47;0.70;99.90
12470;DHT22;36499;46.484;13.832;2023-03-01T10:28:29;0.80;99.90
12470;DHT22;36499;46.484;13.832;2023-03-01T10:31:02;0.90;99.90
12470;DHT22;36499;46.484;13.832;2023-03-01T10:33:32;0.90;99.90
12470;DHT22;36499;46.484;13.832;2023-03-01T10:36:05;0.90;99.90
12470;DHT22;36499;46.484;13.832;2023-03-01T10:38:48;1.00;99.90
12470;DHT22;36499;46.484;13.832;2023-03-01T10:41:18;1.10;99.90
12470;DHT22;36499;46.484;13.832;2023-03-01T10:43:48;1.10;99.90
12470;DHT22;36499;46.484;13.832;2023-03-01T10:46:25;1.30;99.90
12470;DHT22;36499;46.484;13.832;2023-03-01T10:49:07;1.50;99.90
12470;DHT22;36499;46.484;13.832;2023-03-01T10:51:40;1.50;99.90
12470;DHT22;36499;46.484;13.832;2023-03-01T10:54:17;1.60;99.90
12470;DHT22;36499;46.484;13.832;2023-03-01T10:56:47;1.70;99.90
12470;DHT22;36499;46.484;13.832;2023-03-01T10:59:24;1.80;99.90
12470;DHT22;36499;46.484;13.832;2023-03-01T11:02:15;1.90;99.90
12470;DHT22;36499;46.484;13.832;2023-03-01T11:04:57;1.90;99.90
12470;DHT22;36499;46.484;13.832;2023-03-01T11:07:26;2.10;99.90
12470;DHT22;36499;46.484;13.832;2023-03-01T11:09:53;2.10;99.90
12470;DHT22;36499;46.484;13.832;2023-03-01T11:12:21;2.20;99.90
12470;DHT22;36499;46.484;13.832;2023-03-01T11:14:51;2.30;99.90
12470;DHT22;36499;46.484;13.832;2023-03-01T11:17:24;2.30;99.90
12470;DHT22;36499;46.484;13.832;2023-03-01T11:20:03;2.30;99.90
12470;DHT22;36499;46.484;13.832;2023-03-01T11:22:47;2.30;99.90
12470;DHT22;36499;46.484;13.832;2023-03-01T11:25:19;2.20;99.90
12470;DHT22;36499;46.484;13.832;2023-03-01T11:27:52;2.20;99.90
12470;DHT22;36499;46.484;13.832;2023-03-01T11:30:25;2.10;99.90
12470;DHT22;36499;46.484;13.832;2023-03-01T11:33:05;2.10;99.90
12470;DHT22;36499;46.484;13.832;2023-03-01T11:35:44;2.10;99.90
12470;DHT22;36499;46.484;13.832;2023-03-01T11:38:21;2.20;99.90
12470;DHT22;36499;46.484;13.832;2023-03-01T11:40:52;2.20;99.90
12470;DHT22;36499;46.484;13.832;2023-03-01T11:43:33;2.20;99.90
12470;DHT22;36499;46.484;13.832;2023-03-01T11:46:41;2.20;99.90
12470;DHT22;36499;46.484;13.832;2023-03-01T11:52:33;2.30;99.90
12470;DHT22;36499;46.484;13.832;2023-03-01T11:55:24;2.30;99.90
12470;DHT22;36499;46.484;13.832;2023-03-01T11:58:14;2.30;99.90
12470;DHT22;36499;46.484;13.832;2023-03-01T12:01:24;2.30;99.90
12470;DHT22;36499;46.484;13.832;2023-03-01T12:04:32;2.30;99.90
12470;DHT22;36499;46.484;13.832;2023-03-01T12:07:25;2.30;99.90
12470;DHT22;36499;46.484;13.832;2023-03-01T12:10:13;2.20;99.90
12470;DHT22;36499;46.484;13.832;2023-03-01T12:13:10;2.20;99.90
12470;DHT22;36499;46.484;13.832;2023-03-01T12:16:01;2.20;99.90
12470;DHT22;36499;46.484;13.832;2023-03-01T12:18:58;2.20;99.90
12470;DHT22;36499;46.484;13.832;2023-03-01T12:22:00;2.20;99.90
12470;DHT22;36499;46.484;13.832;2023-03-01T12:28:02;2.10;99.90
12470;DHT22;36499;46.484;13.832;2023-03-01T12:34:06;2.10;99.90
12470;DHT22;36499;46.484;13.832;2023-03-01T12:37:01;2.10;99.90
12470;DHT22;36499;46.484;13.832;2023-03-01T12:39:51;2.10;99.90
12470;DHT22;36499;46.484;13.832;2023-03-01T12:42:37;2.10;99.90
12470;DHT22;36499;46.484;13.832;2023-03-01T12:48:36;2.00;99.90
12470;DHT22;36499;46.484;13.832;2023-03-01T12:51:14;2.00;99.90
12470;DHT22;36499;46.484;13.832;2023-03-01T12:53:46;2.00;99.90
12470;DHT22;36499;46.484;13.832;2023-03-01T12:56:17;2.00;99.90
12470;DHT22;36499;46.484;13.832;2023-03-01T12:58:55;2.00;99.90
12470;DHT22;36499;46.484;13.832;2023-03-01T13:01:36;1.90;99.90
12470;DHT22;36499;46.484;13.832;2023-03-01T13:04:25;1.90;99.90
12470;DHT22;36499;46.484;13.832;2023-03-01T13:07:18;1.90;99.90
12470;DHT22;36499;46.484;13.832;2023-03-01T13:09:59;1.80;99.90
12470;DHT22;36499;46.484;13.832;2023-03-01T13:12:53;1.80;99.90
12470;DHT22;36499;46.484;13.832;2023-03-01T13:15:31;1.80;99.90
12470;DHT22;36499;46.484;13.832;2023-03-01T13:18:01;1.80;99.90
12470;DHT22;36499;46.484;13.832;2023-03-01T13:20:34;1.80;99.90
12470;DHT22;36499;46.484;13.832;2023-03-01T13:23:24;1.80;99.90
12470;DHT22;36499;46.484;13.832;2023-03-01T13:26:08;1.80;99.90
12470;DHT22;36499;46.484;13.832;2023-03-01T13:28:47;1.80;99.90
12470;DHT22;36499;46.484;13.832;2023-03-01T13:34:47;1.70;99.90
12470;DHT22;36499;46.484;13.832;2023-03-01T13:37:37;1.70;99.90
12470;DHT22;36499;46.484;13.832;2023-03-01T13:43:32;1.70;99.90
12470;DHT22;36499;46.484;13.832;2023-03-01T13:46:08;1.70;99.90
12470;DHT22;36499;46.484;13.832;2023-03-01T13:48:38;1.70;99.90
12470;DHT22;36499;46.484;13.832;2023-03-01T13:51:09;1.80;99.90
12470;DHT22;36499;46.484;13.832;2023-03-01T13:53:41;1.80;99.90
12470;DHT22;36499;46.484;13.832;2023-03-01T13:56:15;1.80;99.90
12470;DHT22;36499;46.484;13.832;2023-03-01T13:58:48;1.80;99.90
12470;DHT22;36499;46.484;13.832;2023-03-01T14:01:28;1.80;99.90
12470;DHT22;36499;46.484;13.832;2023-03-01T14:03:57;1.80;99.90
12470;DHT22;36499;46.484;13.832;2023-03-01T14:06:26;1.90;99.90
12470;DHT22;36499;46.484;13.832;2023-03-01T14:09:03;1.80;99.90
12470;DHT22;36499;46.484;13.832;2023-03-01T14:11:58;1.80;99.90
12470;DHT22;36499;46.484;13.832;2023-03-01T14:14:43;1.90;99.90
12470;DHT22;36499;46.484;13.832;2023-03-01T14:17:36;1.80;99.90
12470;DHT22;36499;46.484;13.832;2023-03-01T14:20:17;1.90;99.90
12470;DHT22;36499;46.484;13.832;2023-03-01T14:22:47;1.90;99.90
12470;DHT22;36499;46.484;13.832;2023-03-01T14:25:22;1.90;99.90
12470;DHT22;36499;46.484;13.832;2023-03-01T14:27:59;1.90;99.90
12470;DHT22;36499;46.484;13.832;2023-03-01T14:30:32;2.00;99.90
12470;DHT22;36499;46.484;13.832;2023-03-01T14:33:04;2.00;99.90
12470;DHT22;36499;46.484;13.832;2023-03-01T14:35:35;2.00;99.90
12470;DHT22;36499;46.484;13.832;2023-03-01T14:38:03;2.00;99.90
12470;DHT22;36499;46.484;13.832;2023-03-01T14:40:32;2.00;99.90
12470;DHT22;36499;46.484;13.832;2023-03-01T14:43:15;2.10;99.90
12470;DHT22;36499;46.484;13.832;2023-03-01T14:45:49;2.10;99.90
12470;DHT22;36499;46.484;13.832;2023-03-01T14:48:18;2.00;99.90
12470;DHT22;36499;46.484;13.832;2023-03-01T14:50:46;2.00;99.90
12470;DHT22;36499;46.484;13.832;2023-03-01T14:53:17;2.00;99.90
12470;DHT22;36499;46.484;13.832;2023-03-01T14:55:47;2.10;99.90
12470;DHT22;36499;46.484;13.832;2023-03-01T14:58:22;2.00;99.90
12470;DHT22;36499;46.484;13.832;2023-03-01T15:00:52;2.10;99.90
12470;DHT22;36499;46.484;13.832;2023-03-01T15:03:26;2.00;99.90
12470;DHT22;36499;46.484;13.832;2023-03-01T15:05:58;2.00;99.90
12470;DHT22;36499;46.484;13.832;2023-03-01T15:08:28;1.90;99.90
12470;DHT22;36499;46.484;13.832;2023-03-01T15:11:03;1.90;99.90
12470;DHT22;36499;46.484;13.832;2023-03-01T15:13:35;1.90;99.90
12470;DHT22;36499;46.484;13.832;2023-03-01T15:16:07;1.90;99.90
12470;DHT22;36499;46.484;13.832;2023-03-01T15:18:37;1.90;99.90
12470;DHT22;36499;46.484;13.832;2023-03-01T15:21:17;1.80;99.90
12470;DHT22;36499;46.484;13.832;2023-03-01T15:23:49;1.90;99.90
12470;DHT22;36499;46.484;13.832;2023-03-01T15:26:23;1.90;99.90
12470;DHT22;36499;46.484;13.832;2023-03-01T15:28:55;1.90;99.90
12470;DHT22;36499;46.484;13.832;2023-03-01T15:31:27;1.90;99.90
12470;DHT22;36499;46.484;13.832;2023-03-01T15:34:19;1.90;99.90
12470;DHT22;36499;46.484;13.832;2023-03-01T15:36:50;1.80;99.90
12470;DHT22;36499;46.484;13.832;2023-03-01T15:39:33;1.80;99.90
12470;DHT22;36499;46.484;13.832;2023-03-01T15:42:06;1.80;99.90
12470;DHT22;36499;46.484;13.832;2023-03-01T15:44:38;1.70;99.90
12470;DHT22;36499;46.484;13.832;2023-03-01T15:47:23;1.70;99.90
12470;DHT22;36499;46.484;13.832;2023-03-01T15:49:55;1.70;99.90
12470;DHT22;36499;46.484;13.832;2023-03-01T15:52:25;1.70;99.90
12470;DHT22;36499;46.484;13.832;2023-03-01T15:54:57;1.70;99.90
12470;DHT22;36499;46.484;13.832;2023-03-01T15:57:26;1.60;99.90
12470;DHT22;36499;46.484;13.832;2023-03-01T15:59:55;1.60;99.90
12470;DHT22;36499;46.484;13.832;2023-03-01T16:02:22;1.50;99.90
12470;DHT22;36499;46.484;13.832;2023-03-01T16:04:50;1.50;99.90
12470;DHT22;36499;46.484;13.832;2023-03-01T16:07:19;1.60;99.90
12470;DHT22;36499;46.484;13.832;2023-03-01T16:09:46;1.50;99.90
12470;DHT22;36499;46.484;13.832;2023-03-01T16:12:14;1.50;99.90
12470;DHT22;36499;46.484;13.832;2023-03-01T16:14:43;1.50;99.90
12470;DHT22;36499;46.484;13.832;2023-03-01T16:17:11;1.50;99.90
12470;DHT22;36499;46.484;13.832;2023-03-01T16:19:38;1.40;99.90